sensor_id;sensor_type;location;lat;lon;timestamp;pressure;altitude;pressure_sealevel;temperature
15935;BMP180;8066;48.776;11.384;2022-07-15T00:01:36;97751.00;;;30.40
15935;BMP180;8066;48.776;11.384;2022-07-15T00:04:03;97744.00;;;30.40
15935;BMP180;8066;48.776;11.384;2022-07-15T00:06:30;97739.00;;;30.40
15935;BMP180;8066;48.776;11.384;2022-07-15T00:08:58;97759.00;;;30.40
15935;BMP180;8066;48.776;11.384;2022-07-15T00:11:25;97757.00;;;30.30
15935;BMP180;8066;48.776;11.384;2022-07-15T00:13:52;97762.00;;;30.30
15935;BMP180;8066;48.776;11.384;2022-07-15T00:16:19;97760.00;;;30.30
15935;BMP180;8066;48.776;11.384;2022-07-15T00:18:46;97760.00;;;30.30
15935;BMP180;8066;48.776;11.384;2022-07-15T00:21:14;97765.00;;;30.30
15935;BMP180;8066;48.776;11.384;2022-07-15T00:23:41;97770.00;;;30.20
15935;BMP180;8066;48.776;11.384;2022-07-15T00:26:09;97769.00;;;30.20
15935;BMP180;8066;48.776;11.384;2022-07-15T00:28:36;97772.00;;;30.20
15935;BMP180;8066;48.776;11.384;2022-07-15T00:31:03;97776.00;;;30.20
15935;BMP180;8066;48.776;11.384;2022-07-15T00:33:30;97770.00;;;30.20
15935;BMP180;8066;48.776;11.384;2022-07-15T00:35:57;97774.00;;;30.20
15935;BMP180;8066;48.776;11.384;2022-07-15T00:38:24;97773.00;;;30.20
15935;BMP180;8066;48.776;11.384;2022-07-15T00:40:51;97777.00;;;30.10
15935;BMP180;8066;48.776;11.384;2022-07-15T00:43:19;97783.00;;;30.10
15935;BMP180;8066;48.776;11.384;2022-07-15T00:45:47;97780.00;;;30.00
15935;BMP180;8066;48.776;11.384;2022-07-15T00:48:14;97772.00;;;29.90
15935;BMP180;8066;48.776;11.384;2022-07-15T00:50:41;97778.00;;;29.90
15935;BMP180;8066;48.776;11.384;2022-07-15T00:53:16;97793.00;;;29.80
15935;BMP180;8066;48.776;11.384;2022-07-15T00:55:46;97773.00;;;29.80
15935;BMP180;8066;48.776;11.384;2022-07-15T00:58:17;97776.00;;;29.70
15935;BMP180;8066;48.776;11.384;2022-07-15T01:00:47;97780.00;;;29.70
15935;BMP180;8066;48.776;11.384;2022-07-15T01:03:17;97778.00;;;29.60
15935;BMP180;8066;48.776;11.384;2022-07-15T01:05:45;97792.00;;;29.60
15935;BMP180;8066;48.776;11.384;2022-07-15T01:08:12;97787.00;;;29.60
15935;BMP180;8066;48.776;11.384;2022-07-15T01:10:40;97784.00;;;29.50
15935;BMP180;8066;48.776;11.384;2022-07-15T01:13:07;97787.00;;;29.50
15935;BMP180;8066;48.776;11.384;2022-07-15T01:15:34;97786.00;;;29.50
15935;BMP180;8066;48.776;11.384;2022-07-15T01:18:03;97781.00;;;29.40
15935;BMP180;8066;48.776;11.384;2022-07-15T01:20:31;97777.00;;;29.40
15935;BMP180;8066;48.776;11.384;2022-07-15T01:23:00;97786.00;;;29.30
15935;BMP180;8066;48.776;11.384;2022-07-15T01:25:28;97794.00;;;29.30
15935;BMP180;8066;48.776;11.384;2022-07-15T01:27:55;97794.00;;;29.20
15935;BMP180;8066;48.776;11.384;2022-07-15T01:30:22;97794.00;;;29.20
15935;BMP180;8066;48.776;11.384;2022-07-15T01:32:49;97804.00;;;29.20
15935;BMP180;8066;48.776;11.384;2022-07-15T01:35:16;97808.00;;;29.10
15935;BMP180;8066;48.776;11.384;2022-07-15T01:37:43;97803.00;;;29.10
15935;BMP180;8066;48.776;11.384;2022-07-15T01:40:12;97799.00;;;29.10
15935;BMP180;8066;48.776;11.384;2022-07-15T01:42:39;97797.00;;;29.10
15935;BMP180;8066;48.776;11.384;2022-07-15T01:45:07;97803.00;;;29.00
15935;BMP180;8066;48.776;11.384;2022-07-15T01:47:42;97795.00;;;29.00
15935;BMP180;8066;48.776;11.384;2022-07-15T01:50:09;97791.00;;;29.00
15935;BMP180;8066;48.776;11.384;2022-07-15T01:52:36;97785.00;;;28.90
15935;BMP180;8066;48.776;11.384;2022-07-15T01:55:04;97800.00;;;28.90
15935;BMP180;8066;48.776;11.384;2022-07-15T01:57:32;97796.00;;;28.90
15935;BMP180;8066;48.776;11.384;2022-07-15T02:00:00;97797.00;;;28.80
15935;BMP180;8066;48.776;11.384;2022-07-15T02:02:27;97807.00;;;28.80
15935;BMP180;8066;48.776;11.384;2022-07-15T02:04:53;97802.00;;;28.70
15935;BMP180;8066;48.776;11.384;2022-07-15T02:07:20;97801.00;;;28.70
15935;BMP180;8066;48.776;11.384;2022-07-15T02:09:47;97797.00;;;28.70
15935;BMP180;8066;48.776;11.384;2022-07-15T02:12:14;97801.00;;;28.70
15935;BMP180;8066;48.776;11.384;2022-07-15T02:14:42;97790.00;;;28.70
15935;BMP180;8066;48.776;11.384;2022-07-15T02:17:09;97789.00;;;28.60
15935;BMP180;8066;48.776;11.384;2022-07-15T02:19:36;97785.00;;;28.60
15935;BMP180;8066;48.776;11.384;2022-07-15T02:22:03;97800.00;;;28.60
15935;BMP180;8066;48.776;11.384;2022-07-15T02:24:30;97797.00;;;28.50
15935;BMP180;8066;48.776;11.384;2022-07-15T02:26:57;97798.00;;;28.50
15935;BMP180;8066;48.776;11.384;2022-07-15T02:29:24;97779.00;;;28.50
15935;BMP180;8066;48.776;11.384;2022-07-15T02:31:52;97796.00;;;28.40
15935;BMP180;8066;48.776;11.384;2022-07-15T02:34:19;97807.00;;;28.40
15935;BMP180;8066;48.776;11.384;2022-07-15T02:36:46;97800.00;;;28.40
15935;BMP180;8066;48.776;11.384;2022-07-15T02:39:13;97810.00;;;28.30
15935;BMP180;8066;48.776;11.384;2022-07-15T02:41:40;97808.00;;;28.30
15935;BMP180;8066;48.776;11.384;2022-07-15T02:44:06;97801.00;;;28.30
15935;BMP180;8066;48.776;11.384;2022-07-15T02:46:33;97816.00;;;28.30
15935;BMP180;8066;48.776;11.384;2022-07-15T02:49:01;97814.00;;;28.20
15935;BMP180;8066;48.776;11.384;2022-07-15T02:51:28;97818.00;;;28.20
15935;BMP180;8066;48.776;11.384;2022-07-15T02:53:55;97815.00;;;28.20
15935;BMP180;8066;48.776;11.384;2022-07-15T02:56:22;97827.00;;;28.20
15935;BMP180;8066;48.776;11.384;2022-07-15T02:58:51;97818.00;;;28.10
15935;BMP180;8066;48.776;11.384;2022-07-15T03:01:18;97827.00;;;28.10
15935;BMP180;8066;48.776;11.384;2022-07-15T03:03:45;97830.00;;;28.10
15935;BMP180;8066;48.776;11.384;2022-07-15T03:06:13;97798.00;;;28.00
15935;BMP180;8066;48.776;11.384;2022-07-15T03:08:40;97835.00;;;28.00
15935;BMP180;8066;48.776;11.384;2022-07-15T03:11:07;97839.00;;;28.00
15935;BMP180;8066;48.776;11.384;2022-07-15T03:13:34;97837.00;;;27.90
15935;BMP180;8066;48.776;11.384;2022-07-15T03:16:01;97840.00;;;27.90
15935;BMP180;8066;48.776;11.384;2022-07-15T03:18:27;97836.00;;;27.90
15935;BMP180;8066;48.776;11.384;2022-07-15T03:20:54;97832.00;;;27.90
15935;BMP180;8066;48.776;11.384;2022-07-15T03:23:22;97839.00;;;27.80
15935;BMP180;8066;48.776;11.384;2022-07-15T03:25:49;97819.00;;;27.80
15935;BMP180;8066;48.776;11.384;2022-07-15T03:28:16;97847.00;;;27.80
15935;BMP180;8066;48.776;11.384;2022-07-15T03:30:44;97843.00;;;27.80
15935;BMP180;8066;48.776;11.384;2022-07-15T03:33:11;97847.00;;;27.70
15935;BMP180;8066;48.776;11.384;2022-07-15T03:35:38;97849.00;;;27.70
15935;BMP180;8066;48.776;11.384;2022-07-15T03:38:07;97862.00;;;27.70
15935;BMP180;8066;48.776;11.384;2022-07-15T03:40:35;97846.00;;;27.60
15935;BMP180;8066;48.776;11.384;2022-07-15T03:43:02;97854.00;;;27.60
15935;BMP180;8066;48.776;11.384;2022-07-15T03:45:29;97855.00;;;27.60
15935;BMP180;8066;48.776;11.384;2022-07-15T03:47:56;97863.00;;;27.50
15935;BMP180;8066;48.776;11.384;2022-07-15T03:50:23;97866.00;;;27.50
15935;BMP180;8066;48.776;11.384;2022-07-15T03:52:49;97858.00;;;27.50
15935;BMP180;8066;48.776;11.384;2022-07-15T03:55:16;97864.00;;;27.50
15935;BMP180;8066;48.776;11.384;2022-07-15T03:57:44;97867.00;;;27.50
15935;BMP180;8066;48.776;11.384;2022-07-15T04:00:14;97850.00;;;27.50
15935;BMP180;8066;48.776;11.384;2022-07-15T04:02:42;97854.00;;;27.50
15935;BMP180;8066;48.776;11.384;2022-07-15T04:05:09;97861.00;;;27.50
15935;BMP180;8066;48.776;11.384;2022-07-15T04:07:35;97852.00;;;27.50
15935;BMP180;8066;48.776;11.384;2022-07-15T04:10:04;97854.00;;;27.50
15935;BMP180;8066;48.776;11.384;2022-07-15T04:12:31;97854.00;;;27.40
15935;BMP180;8066;48.776;11.384;2022-07-15T04:14:59;97836.00;;;27.40
15935;BMP180;8066;48.776;11.384;2022-07-15T04:17:26;97868.00;;;27.40
15935;BMP180;8066;48.776;11.384;2022-07-15T04:19:53;97856.00;;;27.50
15935;BMP180;8066;48.776;11.384;2022-07-15T04:22:20;97865.00;;;27.40
15935;BMP180;8066;48.776;11.384;2022-07-15T04:24:47;97854.00;;;27.40
15935;BMP180;8066;48.776;11.384;2022-07-15T04:27:14;97853.00;;;27.40
15935;BMP180;8066;48.776;11.384;2022-07-15T04:29:41;97848.00;;;27.40
15935;BMP180;8066;48.776;11.384;2022-07-15T04:32:09;97855.00;;;27.40
15935;BMP180;8066;48.776;11.384;2022-07-15T04:34:36;97868.00;;;27.50
15935;BMP180;8066;48.776;11.384;2022-07-15T04:37:03;97864.00;;;27.50
15935;BMP180;8066;48.776;11.384;2022-07-15T04:39:30;97861.00;;;27.50
15935;BMP180;8066;48.776;11.384;2022-07-15T04:41:57;97860.00;;;27.50
15935;BMP180;8066;48.776;11.384;2022-07-15T04:44:24;97853.00;;;27.60
15935;BMP180;8066;48.776;11.384;2022-07-15T04:46:51;97857.00;;;27.60
15935;BMP180;8066;48.776;11.384;2022-07-15T04:49:19;97845.00;;;27.60
15935;BMP180;8066;48.776;11.384;2022-07-15T04:52:04;97865.00;;;27.60
15935;BMP180;8066;48.776;11.384;2022-07-15T04:54:31;97851.00;;;27.70
15935;BMP180;8066;48.776;11.384;2022-07-15T04:56:57;97846.00;;;27.70
15935;BMP180;8066;48.776;11.384;2022-07-15T04:59:24;97865.00;;;27.80
15935;BMP180;8066;48.776;11.384;2022-07-15T05:01:52;97863.00;;;27.80
15935;BMP180;8066;48.776;11.384;2022-07-15T05:04:20;97864.00;;;27.90
15935;BMP180;8066;48.776;11.384;2022-07-15T05:06:47;97861.00;;;27.90
15935;BMP180;8066;48.776;11.384;2022-07-15T05:09:14;97865.00;;;28.00
15935;BMP180;8066;48.776;11.384;2022-07-15T05:11:41;97866.00;;;28.10
15935;BMP180;8066;48.776;11.384;2022-07-15T05:14:08;97860.00;;;28.20
15935;BMP180;8066;48.776;11.384;2022-07-15T05:16:35;97860.00;;;28.20
15935;BMP180;8066;48.776;11.384;2022-07-15T05:19:02;97859.00;;;28.30
15935;BMP180;8066;48.776;11.384;2022-07-15T05:21:31;97861.00;;;28.30
15935;BMP180;8066;48.776;11.384;2022-07-15T05:23:57;97870.00;;;28.40
15935;BMP180;8066;48.776;11.384;2022-07-15T05:26:24;97867.00;;;28.50
15935;BMP180;8066;48.776;11.384;2022-07-15T05:28:51;97867.00;;;28.50
15935;BMP180;8066;48.776;11.384;2022-07-15T05:31:18;97871.00;;;28.60
15935;BMP180;8066;48.776;11.384;2022-07-15T05:33:45;97863.00;;;28.70
15935;BMP180;8066;48.776;11.384;2022-07-15T05:36:13;97866.00;;;28.80
15935;BMP180;8066;48.776;11.384;2022-07-15T05:38:42;97859.00;;;28.90
15935;BMP180;8066;48.776;11.384;2022-07-15T05:41:08;97866.00;;;29.00
15935;BMP180;8066;48.776;11.384;2022-07-15T05:43:35;97868.00;;;29.10
15935;BMP180;8066;48.776;11.384;2022-07-15T05:46:02;97869.00;;;29.20
15935;BMP180;8066;48.776;11.384;2022-07-15T05:48:29;97865.00;;;29.30
15935;BMP180;8066;48.776;11.384;2022-07-15T05:50:56;97871.00;;;29.50
15935;BMP180;8066;48.776;11.384;2022-07-15T05:53:23;97872.00;;;29.60
15935;BMP180;8066;48.776;11.384;2022-07-15T05:55:52;97862.00;;;29.70
15935;BMP180;8066;48.776;11.384;2022-07-15T05:58:19;97865.00;;;29.80
15935;BMP180;8066;48.776;11.384;2022-07-15T06:00:46;97879.00;;;29.90
15935;BMP180;8066;48.776;11.384;2022-07-15T06:03:12;97873.00;;;30.10
15935;BMP180;8066;48.776;11.384;2022-07-15T06:05:39;97874.00;;;30.20
15935;BMP180;8066;48.776;11.384;2022-07-15T06:08:06;97870.00;;;30.40
15935;BMP180;8066;48.776;11.384;2022-07-15T06:10:33;97890.00;;;30.50
15935;BMP180;8066;48.776;11.384;2022-07-15T06:13:02;97887.00;;;30.60
15935;BMP180;8066;48.776;11.384;2022-07-15T06:15:30;97879.00;;;30.80
15935;BMP180;8066;48.776;11.384;2022-07-15T06:17:56;97864.00;;;30.90
15935;BMP180;8066;48.776;11.384;2022-07-15T06:20:24;97883.00;;;31.00
15935;BMP180;8066;48.776;11.384;2022-07-15T06:22:51;97879.00;;;31.20
15935;BMP180;8066;48.776;11.384;2022-07-15T06:25:18;97880.00;;;31.30
15935;BMP180;8066;48.776;11.384;2022-07-15T06:27:46;97876.00;;;31.40
15935;BMP180;8066;48.776;11.384;2022-07-15T06:30:15;97875.00;;;31.60
15935;BMP180;8066;48.776;11.384;2022-07-15T06:32:42;97871.00;;;31.70
15935;BMP180;8066;48.776;11.384;2022-07-15T06:35:09;97895.00;;;31.90
15935;BMP180;8066;48.776;11.384;2022-07-15T06:37:36;97894.00;;;32.00
15935;BMP180;8066;48.776;11.384;2022-07-15T06:40:05;97872.00;;;32.10
15935;BMP180;8066;48.776;11.384;2022-07-15T06:42:32;97886.00;;;32.10
15935;BMP180;8066;48.776;11.384;2022-07-15T06:44:59;97871.00;;;32.20
15935;BMP180;8066;48.776;11.384;2022-07-15T06:47:27;97890.00;;;32.20
15935;BMP180;8066;48.776;11.384;2022-07-15T06:49:54;97883.00;;;32.20
15935;BMP180;8066;48.776;11.384;2022-07-15T06:52:22;97884.00;;;32.20
15935;BMP180;8066;48.776;11.384;2022-07-15T06:54:49;97887.00;;;32.20
15935;BMP180;8066;48.776;11.384;2022-07-15T06:57:16;97877.00;;;32.30
15935;BMP180;8066;48.776;11.384;2022-07-15T06:59:43;97891.00;;;32.30
15935;BMP180;8066;48.776;11.384;2022-07-15T07:02:10;97890.00;;;32.30
15935;BMP180;8066;48.776;11.384;2022-07-15T07:04:38;97881.00;;;32.30
15935;BMP180;8066;48.776;11.384;2022-07-15T07:07:07;97895.00;;;32.30
15935;BMP180;8066;48.776;11.384;2022-07-15T07:09:34;97898.00;;;32.40
15935;BMP180;8066;48.776;11.384;2022-07-15T07:12:01;97896.00;;;32.40
15935;BMP180;8066;48.776;11.384;2022-07-15T07:14:29;97895.00;;;32.50
15935;BMP180;8066;48.776;11.384;2022-07-15T07:16:55;97900.00;;;32.60
15935;BMP180;8066;48.776;11.384;2022-07-15T07:19:22;97896.00;;;32.90
15935;BMP180;8066;48.776;11.384;2022-07-15T07:21:50;97902.00;;;33.40
15935;BMP180;8066;48.776;11.384;2022-07-15T07:24:17;97888.00;;;33.90
15935;BMP180;8066;48.776;11.384;2022-07-15T07:26:44;97888.00;;;34.50
15935;BMP180;8066;48.776;11.384;2022-07-15T07:29:11;97874.00;;;35.10
15935;BMP180;8066;48.776;11.384;2022-07-15T07:31:40;97859.00;;;35.60
15935;BMP180;8066;48.776;11.384;2022-07-15T07:34:07;97882.00;;;36.20
15935;BMP180;8066;48.776;11.384;2022-07-15T07:36:34;97882.00;;;36.70
15935;BMP180;8066;48.776;11.384;2022-07-15T07:39:02;97873.00;;;37.30
15935;BMP180;8066;48.776;11.384;2022-07-15T07:41:29;97863.00;;;37.80
15935;BMP180;8066;48.776;11.384;2022-07-15T07:43:56;97868.00;;;38.40
15935;BMP180;8066;48.776;11.384;2022-07-15T07:46:23;97870.00;;;38.90
15935;BMP180;8066;48.776;11.384;2022-07-15T07:48:50;97868.00;;;39.30
15935;BMP180;8066;48.776;11.384;2022-07-15T07:51:18;97854.00;;;39.80
15935;BMP180;8066;48.776;11.384;2022-07-15T07:53:45;97866.00;;;40.30
15935;BMP180;8066;48.776;11.384;2022-07-15T07:56:14;97861.00;;;40.70
15935;BMP180;8066;48.776;11.384;2022-07-15T07:58:41;97851.00;;;41.00
15935;BMP180;8066;48.776;11.384;2022-07-15T08:01:08;97829.00;;;41.40
15935;BMP180;8066;48.776;11.384;2022-07-15T08:03:35;97831.00;;;41.70
15935;BMP180;8066;48.776;11.384;2022-07-15T08:06:02;97854.00;;;42.00
15935;BMP180;8066;48.776;11.384;2022-07-15T08:08:30;97847.00;;;42.20
15935;BMP180;8066;48.776;11.384;2022-07-15T08:10:57;97849.00;;;42.40
15935;BMP180;8066;48.776;11.384;2022-07-15T08:13:27;97848.00;;;42.50
15935;BMP180;8066;48.776;11.384;2022-07-15T08:15:55;97850.00;;;42.50
15935;BMP180;8066;48.776;11.384;2022-07-15T08:18:23;97851.00;;;42.60
15935;BMP180;8066;48.776;11.384;2022-07-15T08:20:50;97841.00;;;42.70
15935;BMP180;8066;48.776;11.384;2022-07-15T08:23:17;97853.00;;;42.90
15935;BMP180;8066;48.776;11.384;2022-07-15T08:25:49;97845.00;;;43.10
15935;BMP180;8066;48.776;11.384;2022-07-15T08:28:16;97829.00;;;43.30
15935;BMP180;8066;48.776;11.384;2022-07-15T08:30:45;97844.00;;;43.50
15935;BMP180;8066;48.776;11.384;2022-07-15T08:33:13;97831.00;;;43.70
15935;BMP180;8066;48.776;11.384;2022-07-15T08:35:40;97831.00;;;43.80
15935;BMP180;8066;48.776;11.384;2022-07-15T08:38:08;97834.00;;;43.90
15935;BMP180;8066;48.776;11.384;2022-07-15T08:40:37;97839.00;;;43.70
15935;BMP180;8066;48.776;11.384;2022-07-15T08:43:06;97836.00;;;43.50
15935;BMP180;8066;48.776;11.384;2022-07-15T08:45:36;97840.00;;;43.20
15935;BMP180;8066;48.776;11.384;2022-07-15T08:48:06;97844.00;;;42.80
15935;BMP180;8066;48.776;11.384;2022-07-15T08:50:36;97846.00;;;42.50
15935;BMP180;8066;48.776;11.384;2022-07-15T08:53:03;97848.00;;;42.10
15935;BMP180;8066;48.776;11.384;2022-07-15T08:55:31;97852.00;;;41.80
15935;BMP180;8066;48.776;11.384;2022-07-15T08:57:58;97845.00;;;41.50
15935;BMP180;8066;48.776;11.384;2022-07-15T09:00:27;97855.00;;;41.20
15935;BMP180;8066;48.776;11.384;2022-07-15T09:02:57;97853.00;;;41.10
15935;BMP180;8066;48.776;11.384;2022-07-15T09:05:30;97843.00;;;41.00
15935;BMP180;8066;48.776;11.384;2022-07-15T09:08:04;97842.00;;;41.10
15935;BMP180;8066;48.776;11.384;2022-07-15T09:10:46;97836.00;;;41.30
15935;BMP180;8066;48.776;11.384;2022-07-15T09:13:28;97836.00;;;41.50
15935;BMP180;8066;48.776;11.384;2022-07-15T09:15:58;97827.00;;;41.70
15935;BMP180;8066;48.776;11.384;2022-07-15T09:18:28;97834.00;;;41.90
15935;BMP180;8066;48.776;11.384;2022-07-15T09:20:57;97831.00;;;42.10
15935;BMP180;8066;48.776;11.384;2022-07-15T09:23:27;97821.00;;;42.30
15935;BMP180;8066;48.776;11.384;2022-07-15T09:26:24;97823.00;;;42.60
15935;BMP180;8066;48.776;11.384;2022-07-15T09:28:53;97819.00;;;42.90
15935;BMP180;8066;48.776;11.384;2022-07-15T09:31:30;97812.00;;;43.00
15935;BMP180;8066;48.776;11.384;2022-07-15T09:34:16;97814.00;;;43.10
15935;BMP180;8066;48.776;11.384;2022-07-15T09:36:47;97817.00;;;43.10
15935;BMP180;8066;48.776;11.384;2022-07-15T09:39:17;97823.00;;;43.10
15935;BMP180;8066;48.776;11.384;2022-07-15T09:41:46;97829.00;;;42.90
15935;BMP180;8066;48.776;11.384;2022-07-15T09:44:15;97840.00;;;42.80
15935;BMP180;8066;48.776;11.384;2022-07-15T09:46:45;97836.00;;;42.50
15935;BMP180;8066;48.776;11.384;2022-07-15T09:49:15;97840.00;;;42.20
15935;BMP180;8066;48.776;11.384;2022-07-15T09:51:47;97828.00;;;41.90
15935;BMP180;8066;48.776;11.384;2022-07-15T09:54:15;97827.00;;;41.70
15935;BMP180;8066;48.776;11.384;2022-07-15T09:56:44;97831.00;;;41.50
15935;BMP180;8066;48.776;11.384;2022-07-15T09:59:11;97837.00;;;41.50
15935;BMP180;8066;48.776;11.384;2022-07-15T10:01:40;97831.00;;;41.50
15935;BMP180;8066;48.776;11.384;2022-07-15T10:04:09;97796.00;;;41.60
15935;BMP180;8066;48.776;11.384;2022-07-15T10:06:38;97826.00;;;41.90
15935;BMP180;8066;48.776;11.384;2022-07-15T10:09:07;97824.00;;;42.10
15935;BMP180;8066;48.776;11.384;2022-07-15T10:11:40;97833.00;;;42.50
15935;BMP180;8066;48.776;11.384;2022-07-15T10:15:03;97832.00;;;43.00
15935;BMP180;8066;48.776;11.384;2022-07-15T10:17:53;97827.00;;;43.40
15935;BMP180;8066;48.776;11.384;2022-07-15T10:20:38;97824.00;;;43.90
15935;BMP180;8066;48.776;11.384;2022-07-15T10:23:20;97797.00;;;44.20
15935;BMP180;8066;48.776;11.384;2022-07-15T10:26:18;97823.00;;;44.50
15935;BMP180;8066;48.776;11.384;2022-07-15T10:28:56;97818.00;;;44.80
15935;BMP180;8066;48.776;11.384;2022-07-15T10:31:25;97820.00;;;45.00
15935;BMP180;8066;48.776;11.384;2022-07-15T10:34:21;97822.00;;;45.20
15935;BMP180;8066;48.776;11.384;2022-07-15T10:36:58;97824.00;;;45.50
15935;BMP180;8066;48.776;11.384;2022-07-15T10:39:29;97810.00;;;45.70
15935;BMP180;8066;48.776;11.384;2022-07-15T10:42:15;97813.00;;;45.90
15935;BMP180;8066;48.776;11.384;2022-07-15T10:45:07;97814.00;;;46.10
15935;BMP180;8066;48.776;11.384;2022-07-15T10:47:35;97805.00;;;46.10
15935;BMP180;8066;48.776;11.384;2022-07-15T10:50:37;97804.00;;;45.90
15935;BMP180;8066;48.776;11.384;2022-07-15T10:53:22;97808.00;;;45.90
15935;BMP180;8066;48.776;11.384;2022-07-15T10:55:50;97810.00;;;45.90
15935;BMP180;8066;48.776;11.384;2022-07-15T10:58:18;97795.00;;;46.10
15935;BMP180;8066;48.776;11.384;2022-07-15T11:00:46;97798.00;;;46.30
15935;BMP180;8066;48.776;11.384;2022-07-15T11:03:16;97783.00;;;46.60
15935;BMP180;8066;48.776;11.384;2022-07-15T11:06:04;97782.00;;;46.80
15935;BMP180;8066;48.776;11.384;2022-07-15T11:08:52;97782.00;;;47.00
15935;BMP180;8066;48.776;11.384;2022-07-15T11:11:47;97784.00;;;47.20
15935;BMP180;8066;48.776;11.384;2022-07-15T11:14:55;97781.00;;;47.20
15935;BMP180;8066;48.776;11.384;2022-07-15T11:17:37;97768.00;;;47.30
15935;BMP180;8066;48.776;11.384;2022-07-15T11:20:07;97772.00;;;47.40
15935;BMP180;8066;48.776;11.384;2022-07-15T11:22:37;97772.00;;;47.40
15935;BMP180;8066;48.776;11.384;2022-07-15T11:25:06;97766.00;;;47.60
15935;BMP180;8066;48.776;11.384;2022-07-15T11:27:33;97765.00;;;47.60
15935;BMP180;8066;48.776;11.384;2022-07-15T11:30:05;97756.00;;;47.60
15935;BMP180;8066;48.776;11.384;2022-07-15T11:32:33;97753.00;;;47.70
15935;BMP180;8066;48.776;11.384;2022-07-15T11:35:02;97759.00;;;47.80
15935;BMP180;8066;48.776;11.384;2022-07-15T11:37:32;97756.00;;;47.80
15935;BMP180;8066;48.776;11.384;2022-07-15T11:40:12;97758.00;;;47.90
15935;BMP180;8066;48.776;11.384;2022-07-15T11:43:01;97755.00;;;48.10
15935;BMP180;8066;48.776;11.384;2022-07-15T11:45:47;97746.00;;;48.20
15935;BMP180;8066;48.776;11.384;2022-07-15T11:48:14;97745.00;;;48.20
15935;BMP180;8066;48.776;11.384;2022-07-15T11:50:50;97743.00;;;48.10
15935;BMP180;8066;48.776;11.384;2022-07-15T11:53:18;97741.00;;;47.90
15935;BMP180;8066;48.776;11.384;2022-07-15T11:55:55;97741.00;;;47.60
15935;BMP180;8066;48.776;11.384;2022-07-15T11:58:28;97741.00;;;47.40
15935;BMP180;8066;48.776;11.384;2022-07-15T12:00:57;97740.00;;;47.20
15935;BMP180;8066;48.776;11.384;2022-07-15T12:03:31;97742.00;;;47.10
15935;BMP180;8066;48.776;11.384;2022-07-15T12:06:01;97732.00;;;47.20
15935;BMP180;8066;48.776;11.384;2022-07-15T12:08:39;97722.00;;;47.20
15935;BMP180;8066;48.776;11.384;2022-07-15T12:11:15;97727.00;;;47.30
15935;BMP180;8066;48.776;11.384;2022-07-15T12:13:45;97723.00;;;47.30
15935;BMP180;8066;48.776;11.384;2022-07-15T12:16:18;97719.00;;;47.30
15935;BMP180;8066;48.776;11.384;2022-07-15T12:18:46;97711.00;;;47.20
15935;BMP180;8066;48.776;11.384;2022-07-15T12:21:14;97727.00;;;47.10
15935;BMP180;8066;48.776;11.384;2022-07-15T12:24:07;97723.00;;;46.70
15935;BMP180;8066;48.776;11.384;2022-07-15T12:26:36;97713.00;;;46.30
15935;BMP180;8066;48.776;11.384;2022-07-15T12:29:08;97720.00;;;46.20
15935;BMP180;8066;48.776;11.384;2022-07-15T12:31:39;97713.00;;;46.10
15935;BMP180;8066;48.776;11.384;2022-07-15T12:34:06;97720.00;;;46.10
15935;BMP180;8066;48.776;11.384;2022-07-15T12:36:35;97715.00;;;46.10
15935;BMP180;8066;48.776;11.384;2022-07-15T12:39:14;97713.00;;;46.20
15935;BMP180;8066;48.776;11.384;2022-07-15T12:41:43;97701.00;;;46.20
15935;BMP180;8066;48.776;11.384;2022-07-15T12:44:12;97720.00;;;46.30
15935;BMP180;8066;48.776;11.384;2022-07-15T12:46:52;97713.00;;;46.30
15935;BMP180;8066;48.776;11.384;2022-07-15T12:49:47;97706.00;;;46.10
15935;BMP180;8066;48.776;11.384;2022-07-15T12:52:25;97715.00;;;46.10
15935;BMP180;8066;48.776;11.384;2022-07-15T12:54:58;97719.00;;;45.90
15935;BMP180;8066;48.776;11.384;2022-07-15T12:57:31;97715.00;;;45.70
15935;BMP180;8066;48.776;11.384;2022-07-15T13:00:01;97723.00;;;45.50
15935;BMP180;8066;48.776;11.384;2022-07-15T13:02:32;97716.00;;;45.30
15935;BMP180;8066;48.776;11.384;2022-07-15T13:05:20;97716.00;;;45.10
15935;BMP180;8066;48.776;11.384;2022-07-15T13:07:47;97722.00;;;44.90
15935;BMP180;8066;48.776;11.384;2022-07-15T13:10:14;97697.00;;;44.90
15935;BMP180;8066;48.776;11.384;2022-07-15T13:12:41;97706.00;;;44.80
15935;BMP180;8066;48.776;11.384;2022-07-15T13:15:09;97706.00;;;44.80
15935;BMP180;8066;48.776;11.384;2022-07-15T13:17:36;97707.00;;;44.80
15935;BMP180;8066;48.776;11.384;2022-07-15T13:20:04;97709.00;;;44.60
15935;BMP180;8066;48.776;11.384;2022-07-15T13:22:33;97700.00;;;44.40
15935;BMP180;8066;48.776;11.384;2022-07-15T13:25:00;97704.00;;;44.10
15935;BMP180;8066;48.776;11.384;2022-07-15T13:27:27;97699.00;;;44.00
15935;BMP180;8066;48.776;11.384;2022-07-15T13:29:54;97701.00;;;43.80
15935;BMP180;8066;48.776;11.384;2022-07-15T13:32:21;97669.00;;;43.70
15935;BMP180;8066;48.776;11.384;2022-07-15T13:34:48;97692.00;;;43.50
15935;BMP180;8066;48.776;11.384;2022-07-15T13:37:15;97696.00;;;43.30
15935;BMP180;8066;48.776;11.384;2022-07-15T13:39:43;97695.00;;;43.10
15935;BMP180;8066;48.776;11.384;2022-07-15T13:42:10;97690.00;;;43.00
15935;BMP180;8066;48.776;11.384;2022-07-15T13:44:37;97686.00;;;42.80
15935;BMP180;8066;48.776;11.384;2022-07-15T13:47:04;97700.00;;;42.70
15935;BMP180;8066;48.776;11.384;2022-07-15T13:49:30;97700.00;;;42.50
15935;BMP180;8066;48.776;11.384;2022-07-15T13:52:15;97694.00;;;42.30
15935;BMP180;8066;48.776;11.384;2022-07-15T13:54:43;97693.00;;;42.20
15935;BMP180;8066;48.776;11.384;2022-07-15T13:57:11;97696.00;;;42.00
15935;BMP180;8066;48.776;11.384;2022-07-15T13:59:38;97702.00;;;41.90
15935;BMP180;8066;48.776;11.384;2022-07-15T14:02:04;97698.00;;;41.80
15935;BMP180;8066;48.776;11.384;2022-07-15T14:04:31;97692.00;;;41.70
15935;BMP180;8066;48.776;11.384;2022-07-15T14:06:58;97695.00;;;41.60
15935;BMP180;8066;48.776;11.384;2022-07-15T14:09:25;97697.00;;;41.50
15935;BMP180;8066;48.776;11.384;2022-07-15T14:11:53;97694.00;;;41.40
15935;BMP180;8066;48.776;11.384;2022-07-15T14:14:21;97692.00;;;41.30
15935;BMP180;8066;48.776;11.384;2022-07-15T14:16:48;97698.00;;;41.20
15935;BMP180;8066;48.776;11.384;2022-07-15T14:19:15;97692.00;;;41.10
15935;BMP180;8066;48.776;11.384;2022-07-15T14:21:42;97693.00;;;41.00
15935;BMP180;8066;48.776;11.384;2022-07-15T14:24:09;97697.00;;;40.90